sensor_id;sensor_type;location;lat;lon;timestamp;P1;durP1;ratioP1;P2;durP2;ratioP2
21943;SDS011;11136;48.778;9.126;2023-03-30T00:01:20;8.50;;;2.40;;
21943;SDS011;11136;48.778;9.126;2023-03-30T00:03:46;5.93;;;2.10;;
21943;SDS011;11136;48.778;9.126;2023-03-30T00:06:14;9.68;;;2.50;;
21943;SDS011;11136;48.778;9.126;2023-03-30T00:08:50;15.32;;;2.28;;
21943;SDS011;11136;48.778;9.126;2023-03-30T00:11:21;9.77;;;2.45;;
21943;SDS011;11136;48.778;9.126;2023-03-30T00:13:48;11.60;;;2.92;;
21943;SDS011;11136;48.778;9.126;2023-03-30T00:16:17;11.48;;;2.83;;
21943;SDS011;11136;48.778;9.126;2023-03-30T00:18:43;10.02;;;3.00;;
21943;SDS011;11136;48.778;9.126;2023-03-30T00:21:10;11.20;;;2.92;;
21943;SDS011;11136;48.778;9.126;2023-03-30T00:23:36;12.13;;;2.33;;
21943;SDS011;11136;48.778;9.126;2023-03-30T00:26:02;8.80;;;2.95;;
21943;SDS011;11136;48.778;9.126;2023-03-30T00:28:28;10.10;;;2.63;;
21943;SDS011;11136;48.778;9.126;2023-03-30T00:30:57;12.27;;;2.72;;
21943;SDS011;11136;48.778;9.126;2023-03-30T00:33:23;15.07;;;2.78;;
21943;SDS011;11136;48.778;9.126;2023-03-30T00:35:55;7.05;;;1.90;;
21943;SDS011;11136;48.778;9.126;2023-03-30T00:38:22;12.73;;;2.35;;
21943;SDS011;11136;48.778;9.126;2023-03-30T00:40:51;13.30;;;2.33;;
21943;SDS011;11136;48.778;9.126;2023-03-30T00:43:18;12.52;;;2.53;;
21943;SDS011;11136;48.778;9.126;2023-03-30T00:45:44;14.30;;;2.92;;
21943;SDS011;11136;48.778;9.126;2023-03-30T00:48:27;6.38;;;2.25;;
21943;SDS011;11136;48.778;9.126;2023-03-30T00:50:59;7.45;;;2.30;;
21943;SDS011;11136;48.778;9.126;2023-03-30T00:53:38;14.80;;;2.45;;
21943;SDS011;11136;48.778;9.126;2023-03-30T00:56:10;14.52;;;2.58;;
21943;SDS011;11136;48.778;9.126;2023-03-30T00:58:39;8.57;;;2.78;;
21943;SDS011;11136;48.778;9.126;2023-03-30T01:01:06;12.15;;;2.70;;
21943;SDS011;11136;48.778;9.126;2023-03-30T01:03:39;6.45;;;2.28;;
21943;SDS011;11136;48.778;9.126;2023-03-30T01:06:09;16.83;;;3.33;;
21943;SDS011;11136;48.778;9.126;2023-03-30T01:08:36;7.88;;;2.97;;
21943;SDS011;11136;48.778;9.126;2023-03-30T01:11:04;9.40;;;2.53;;
21943;SDS011;11136;48.778;9.126;2023-03-30T01:13:32;13.18;;;3.08;;
21943;SDS011;11136;48.778;9.126;2023-03-30T01:21:34;15.10;;;2.10;;
21943;SDS011;11136;48.778;9.126;2023-03-30T01:46:22;11.73;;;2.65;;
21943;SDS011;11136;48.778;9.126;2023-03-30T01:49:12;12.45;;;2.63;;
21943;SDS011;11136;48.778;9.126;2023-03-30T01:51:41;14.73;;;3.42;;
21943;SDS011;11136;48.778;9.126;2023-03-30T01:54:16;14.15;;;3.05;;
21943;SDS011;11136;48.778;9.126;2023-03-30T01:56:48;8.18;;;2.55;;
21943;SDS011;11136;48.778;9.126;2023-03-30T01:59:25;13.98;;;3.33;;
21943;SDS011;11136;48.778;9.126;2023-03-30T02:02:00;12.95;;;3.15;;
21943;SDS011;11136;48.778;9.126;2023-03-30T02:04:32;13.98;;;3.33;;
21943;SDS011;11136;48.778;9.126;2023-03-30T02:07:00;13.40;;;2.60;;
21943;SDS011;11136;48.778;9.126;2023-03-30T02:09:31;12.00;;;2.90;;
21943;SDS011;11136;48.778;9.126;2023-03-30T02:12:00;16.08;;;2.60;;
21943;SDS011;11136;48.778;9.126;2023-03-30T02:14:28;12.35;;;3.33;;
21943;SDS011;11136;48.778;9.126;2023-03-30T02:17:05;11.10;;;3.05;;
21943;SDS011;11136;48.778;9.126;2023-03-30T02:19:47;12.73;;;2.78;;
21943;SDS011;11136;48.778;9.126;2023-03-30T02:22:17;14.68;;;3.05;;
21943;SDS011;11136;48.778;9.126;2023-03-30T02:24:44;15.77;;;2.83;;
21943;SDS011;11136;48.778;9.126;2023-03-30T02:27:12;12.63;;;2.95;;
21943;SDS011;11136;48.778;9.126;2023-03-30T02:29:39;12.75;;;2.10;;
21943;SDS011;11136;48.778;9.126;2023-03-30T02:32:13;14.60;;;3.22;;
21943;SDS011;11136;48.778;9.126;2023-03-30T02:43:29;12.30;;;3.35;;
21943;SDS011;11136;48.778;9.126;2023-03-30T02:46:07;10.45;;;3.10;;
21943;SDS011;11136;48.778;9.126;2023-03-30T02:48:40;15.32;;;3.33;;
21943;SDS011;11136;48.778;9.126;2023-03-30T02:53:51;10.38;;;2.63;;
21943;SDS011;11136;48.778;9.126;2023-03-30T02:56:40;15.80;;;3.38;;
21943;SDS011;11136;48.778;9.126;2023-03-30T02:59:18;10.52;;;2.92;;
21943;SDS011;11136;48.778;9.126;2023-03-30T03:04:18;15.50;;;2.60;;
21943;SDS011;11136;48.778;9.126;2023-03-30T03:06:46;8.95;;;2.90;;
21943;SDS011;11136;48.778;9.126;2023-03-30T03:09:12;15.98;;;2.95;;
21943;SDS011;11136;48.778;9.126;2023-03-30T03:11:39;20.85;;;3.85;;
21943;SDS011;11136;48.778;9.126;2023-03-30T03:14:05;13.20;;;3.55;;
21943;SDS011;11136;48.778;9.126;2023-03-30T03:16:31;12.25;;;3.22;;
21943;SDS011;11136;48.778;9.126;2023-03-30T03:18:57;14.63;;;3.65;;
21943;SDS011;11136;48.778;9.126;2023-03-30T03:21:22;15.40;;;3.00;;
21943;SDS011;11136;48.778;9.126;2023-03-30T03:23:48;15.00;;;3.10;;
21943;SDS011;11136;48.778;9.126;2023-03-30T03:26:13;12.30;;;3.00;;
21943;SDS011;11136;48.778;9.126;2023-03-30T03:28:39;14.77;;;3.40;;
21943;SDS011;11136;48.778;9.126;2023-03-30T03:31:05;13.93;;;2.90;;
21943;SDS011;11136;48.778;9.126;2023-03-30T03:33:31;9.30;;;2.80;;
21943;SDS011;11136;48.778;9.126;2023-03-30T03:35:56;18.63;;;3.65;;
21943;SDS011;11136;48.778;9.126;2023-03-30T03:38:23;9.73;;;3.42;;
21943;SDS011;11136;48.778;9.126;2023-03-30T03:40:54;7.53;;;3.10;;
21943;SDS011;11136;48.778;9.126;2023-03-30T03:43:20;19.10;;;2.60;;
21943;SDS011;11136;48.778;9.126;2023-03-30T03:45:47;18.60;;;3.38;;
21943;SDS011;11136;48.778;9.126;2023-03-30T03:48:14;17.42;;;3.45;;
21943;SDS011;11136;48.778;9.126;2023-03-30T03:50:41;19.33;;;4.00;;
21943;SDS011;11136;48.778;9.126;2023-03-30T03:53:07;14.65;;;2.92;;
21943;SDS011;11136;48.778;9.126;2023-03-30T03:55:33;11.55;;;2.95;;
21943;SDS011;11136;48.778;9.126;2023-03-30T03:58:00;16.02;;;3.55;;
21943;SDS011;11136;48.778;9.126;2023-03-30T04:00:26;10.90;;;3.75;;
21943;SDS011;11136;48.778;9.126;2023-03-30T04:02:53;12.82;;;3.05;;
21943;SDS011;11136;48.778;9.126;2023-03-30T04:05:18;7.43;;;2.40;;
21943;SDS011;11136;48.778;9.126;2023-03-30T04:07:44;17.13;;;3.28;;
21943;SDS011;11136;48.778;9.126;2023-03-30T04:10:12;18.23;;;4.32;;
21943;SDS011;11136;48.778;9.126;2023-03-30T04:12:38;15.00;;;3.50;;
21943;SDS011;11136;48.778;9.126;2023-03-30T04:15:04;15.10;;;3.63;;
21943;SDS011;11136;48.778;9.126;2023-03-30T04:17:30;14.20;;;3.20;;
21943;SDS011;11136;48.778;9.126;2023-03-30T04:20:01;11.45;;;3.50;;
21943;SDS011;11136;48.778;9.126;2023-03-30T04:22:36;11.00;;;3.53;;
21943;SDS011;11136;48.778;9.126;2023-03-30T04:25:06;20.98;;;2.85;;
21943;SDS011;11136;48.778;9.126;2023-03-30T04:27:39;16.10;;;3.22;;
21943;SDS011;11136;48.778;9.126;2023-03-30T04:30:08;10.15;;;4.30;;
21943;SDS011;11136;48.778;9.126;2023-03-30T04:32:34;14.18;;;3.83;;
21943;SDS011;11136;48.778;9.126;2023-03-30T04:35:03;10.52;;;3.00;;
21943;SDS011;11136;48.778;9.126;2023-03-30T04:37:30;17.85;;;3.50;;
21943;SDS011;11136;48.778;9.126;2023-03-30T04:39:59;18.25;;;3.92;;
21943;SDS011;11136;48.778;9.126;2023-03-30T04:42:28;12.32;;;3.03;;
21943;SDS011;11136;48.778;9.126;2023-03-30T04:44:57;12.43;;;2.58;;
21943;SDS011;11136;48.778;9.126;2023-03-30T04:47:26;13.07;;;3.80;;
21943;SDS011;11136;48.778;9.126;2023-03-30T04:49:52;16.98;;;3.67;;
21943;SDS011;11136;48.778;9.126;2023-03-30T04:52:18;14.45;;;4.15;;
21943;SDS011;11136;48.778;9.126;2023-03-30T04:54:44;11.10;;;3.58;;
21943;SDS011;11136;48.778;9.126;2023-03-30T04:57:11;22.58;;;3.60;;
21943;SDS011;11136;48.778;9.126;2023-03-30T04:59:38;15.45;;;3.50;;
21943;SDS011;11136;48.778;9.126;2023-03-30T05:02:07;14.55;;;3.58;;
21943;SDS011;11136;48.778;9.126;2023-03-30T05:04:35;16.92;;;3.63;;
21943;SDS011;11136;48.778;9.126;2023-03-30T05:07:02;17.70;;;3.72;;
21943;SDS011;11136;48.778;9.126;2023-03-30T05:09:28;17.98;;;3.63;;
21943;SDS011;11136;48.778;9.126;2023-03-30T05:11:54;19.17;;;3.97;;
21943;SDS011;11136;48.778;9.126;2023-03-30T05:14:19;21.73;;;3.55;;
21943;SDS011;11136;48.778;9.126;2023-03-30T05:16:45;16.83;;;3.70;;
21943;SDS011;11136;48.778;9.126;2023-03-30T05:19:11;15.70;;;3.58;;
21943;SDS011;11136;48.778;9.126;2023-03-30T05:21:37;13.57;;;3.20;;
21943;SDS011;11136;48.778;9.126;2023-03-30T05:24:02;17.80;;;3.95;;
21943;SDS011;11136;48.778;9.126;2023-03-30T05:26:28;14.75;;;3.50;;
21943;SDS011;11136;48.778;9.126;2023-03-30T05:28:54;10.77;;;3.13;;
21943;SDS011;11136;48.778;9.126;2023-03-30T05:31:20;13.60;;;3.42;;
21943;SDS011;11136;48.778;9.126;2023-03-30T05:33:46;15.95;;;4.03;;
21943;SDS011;11136;48.778;9.126;2023-03-30T05:36:12;18.95;;;3.90;;
21943;SDS011;11136;48.778;9.126;2023-03-30T05:38:38;10.35;;;4.07;;
21943;SDS011;11136;48.778;9.126;2023-03-30T05:41:04;16.83;;;4.40;;
21943;SDS011;11136;48.778;9.126;2023-03-30T05:43:31;21.48;;;4.95;;
21943;SDS011;11136;48.778;9.126;2023-03-30T05:45:57;20.45;;;5.28;;
21943;SDS011;11136;48.778;9.126;2023-03-30T05:48:23;9.68;;;3.22;;
21943;SDS011;11136;48.778;9.126;2023-03-30T05:50:48;16.48;;;3.90;;
21943;SDS011;11136;48.778;9.126;2023-03-30T05:53:14;14.90;;;3.70;;
21943;SDS011;11136;48.778;9.126;2023-03-30T05:55:44;15.45;;;3.55;;
21943;SDS011;11136;48.778;9.126;2023-03-30T05:58:10;18.15;;;3.45;;
21943;SDS011;11136;48.778;9.126;2023-03-30T06:00:37;19.58;;;3.92;;
21943;SDS011;11136;48.778;9.126;2023-03-30T06:03:05;12.13;;;3.22;;
21943;SDS011;11136;48.778;9.126;2023-03-30T06:05:34;18.92;;;3.67;;
21943;SDS011;11136;48.778;9.126;2023-03-30T06:08:07;15.70;;;4.07;;
21943;SDS011;11136;48.778;9.126;2023-03-30T06:10:33;12.25;;;3.42;;
21943;SDS011;11136;48.778;9.126;2023-03-30T06:12:59;21.67;;;4.07;;
21943;SDS011;11136;48.778;9.126;2023-03-30T06:15:25;15.63;;;3.70;;
21943;SDS011;11136;48.778;9.126;2023-03-30T06:17:51;18.95;;;4.40;;
21943;SDS011;11136;48.778;9.126;2023-03-30T06:20:17;13.32;;;3.45;;
21943;SDS011;11136;48.778;9.126;2023-03-30T06:22:46;15.10;;;3.90;;
21943;SDS011;11136;48.778;9.126;2023-03-30T06:25:12;15.00;;;3.90;;
21943;SDS011;11136;48.778;9.126;2023-03-30T06:27:38;18.80;;;4.25;;
21943;SDS011;11136;48.778;9.126;2023-03-30T06:30:04;16.40;;;4.53;;
21943;SDS011;11136;48.778;9.126;2023-03-30T06:32:30;18.20;;;3.65;;
21943;SDS011;11136;48.778;9.126;2023-03-30T06:34:56;15.60;;;4.15;;
21943;SDS011;11136;48.778;9.126;2023-03-30T06:37:21;6.65;;;2.72;;
21943;SDS011;11136;48.778;9.126;2023-03-30T06:39:47;17.17;;;3.60;;
21943;SDS011;11136;48.778;9.126;2023-03-30T06:42:13;20.20;;;4.32;;
21943;SDS011;11136;48.778;9.126;2023-03-30T06:44:38;16.40;;;4.05;;
21943;SDS011;11136;48.778;9.126;2023-03-30T06:47:04;23.33;;;3.67;;
21943;SDS011;11136;48.778;9.126;2023-03-30T06:49:30;15.38;;;3.25;;
21943;SDS011;11136;48.778;9.126;2023-03-30T06:51:56;19.65;;;3.35;;
21943;SDS011;11136;48.778;9.126;2023-03-30T06:54:22;13.80;;;3.25;;
21943;SDS011;11136;48.778;9.126;2023-03-30T06:56:48;24.00;;;4.10;;
21943;SDS011;11136;48.778;9.126;2023-03-30T06:59:14;15.73;;;4.00;;
21943;SDS011;11136;48.778;9.126;2023-03-30T07:01:40;14.45;;;3.60;;
21943;SDS011;11136;48.778;9.126;2023-03-30T07:04:06;12.90;;;4.05;;
21943;SDS011;11136;48.778;9.126;2023-03-30T07:06:33;12.77;;;3.55;;
21943;SDS011;11136;48.778;9.126;2023-03-30T07:08:58;12.27;;;3.38;;
21943;SDS011;11136;48.778;9.126;2023-03-30T07:11:24;18.80;;;3.70;;
21943;SDS011;11136;48.778;9.126;2023-03-30T07:13:50;14.25;;;3.75;;
21943;SDS011;11136;48.778;9.126;2023-03-30T07:16:16;15.13;;;3.38;;
21943;SDS011;11136;48.778;9.126;2023-03-30T07:18:42;20.63;;;4.00;;
21943;SDS011;11136;48.778;9.126;2023-03-30T07:21:07;16.10;;;3.72;;
21943;SDS011;11136;48.778;9.126;2023-03-30T07:23:33;10.38;;;3.33;;
21943;SDS011;11136;48.778;9.126;2023-03-30T07:25:58;10.63;;;3.50;;
21943;SDS011;11136;48.778;9.126;2023-03-30T07:28:24;20.00;;;4.22;;
21943;SDS011;11136;48.778;9.126;2023-03-30T07:30:50;8.30;;;2.58;;
21943;SDS011;11136;48.778;9.126;2023-03-30T07:33:16;13.35;;;3.35;;
21943;SDS011;11136;48.778;9.126;2023-03-30T07:35:43;12.27;;;2.92;;
21943;SDS011;11136;48.778;9.126;2023-03-30T07:38:10;12.00;;;3.67;;
21943;SDS011;11136;48.778;9.126;2023-03-30T07:40:37;15.35;;;4.00;;
21943;SDS011;11136;48.778;9.126;2023-03-30T07:43:02;12.57;;;4.20;;
21943;SDS011;11136;48.778;9.126;2023-03-30T07:45:28;9.70;;;3.72;;
21943;SDS011;11136;48.778;9.126;2023-03-30T07:47:54;10.77;;;3.47;;
21943;SDS011;11136;48.778;9.126;2023-03-30T07:50:19;16.00;;;3.67;;
21943;SDS011;11136;48.778;9.126;2023-03-30T07:52:45;10.80;;;2.58;;
21943;SDS011;11136;48.778;9.126;2023-03-30T07:55:11;12.23;;;3.85;;
21943;SDS011;11136;48.778;9.126;2023-03-30T07:57:37;6.25;;;2.53;;
21943;SDS011;11136;48.778;9.126;2023-03-30T08:00:02;10.55;;;2.17;;
21943;SDS011;11136;48.778;9.126;2023-03-30T08:02:34;12.13;;;2.63;;
21943;SDS011;11136;48.778;9.126;2023-03-30T08:05:00;6.65;;;2.55;;
21943;SDS011;11136;48.778;9.126;2023-03-30T08:07:26;10.77;;;3.20;;
21943;SDS011;11136;48.778;9.126;2023-03-30T08:09:52;12.45;;;3.42;;
21943;SDS011;11136;48.778;9.126;2023-03-30T08:12:18;7.57;;;2.85;;
21943;SDS011;11136;48.778;9.126;2023-03-30T08:14:44;9.50;;;2.80;;
21943;SDS011;11136;48.778;9.126;2023-03-30T08:17:10;7.63;;;2.70;;
21943;SDS011;11136;48.778;9.126;2023-03-30T08:19:36;10.50;;;2.78;;
21943;SDS011;11136;48.778;9.126;2023-03-30T08:22:01;7.38;;;2.83;;
21943;SDS011;11136;48.778;9.126;2023-03-30T08:24:27;12.20;;;2.90;;
21943;SDS011;11136;48.778;9.126;2023-03-30T08:26:53;6.18;;;2.45;;
21943;SDS011;11136;48.778;9.126;2023-03-30T08:29:18;6.78;;;2.63;;
21943;SDS011;11136;48.778;9.126;2023-03-30T08:31:44;9.88;;;3.05;;
21943;SDS011;11136;48.778;9.126;2023-03-30T08:34:10;5.47;;;2.85;;
21943;SDS011;11136;48.778;9.126;2023-03-30T08:36:35;8.73;;;2.45;;
21943;SDS011;11136;48.778;9.126;2023-03-30T08:39:01;10.98;;;3.90;;
21943;SDS011;11136;48.778;9.126;2023-03-30T08:43:55;10.73;;;2.45;;
21943;SDS011;11136;48.778;9.126;2023-03-30T08:46:23;7.97;;;2.88;;
21943;SDS011;11136;48.778;9.126;2023-03-30T08:48:49;6.25;;;2.08;;
21943;SDS011;11136;48.778;9.126;2023-03-30T08:51:31;10.05;;;2.55;;
21943;SDS011;11136;48.778;9.126;2023-03-30T08:54:03;13.23;;;2.40;;
21943;SDS011;11136;48.778;9.126;2023-03-30T08:56:32;9.27;;;2.38;;
21943;SDS011;11136;48.778;9.126;2023-03-30T09:01:52;4.88;;;2.67;;
21943;SDS011;11136;48.778;9.126;2023-03-30T09:07:16;7.82;;;2.65;;
21943;SDS011;11136;48.778;9.126;2023-03-30T09:09:44;12.00;;;2.83;;
21943;SDS011;11136;48.778;9.126;2023-03-30T09:14:57;6.28;;;2.22;;
21943;SDS011;11136;48.778;9.126;2023-03-30T09:17:35;4.28;;;1.75;;
21943;SDS011;11136;48.778;9.126;2023-03-30T09:20:07;5.15;;;1.70;;
21943;SDS011;11136;48.778;9.126;2023-03-30T09:22:38;2.10;;;1.45;;
21943;SDS011;11136;48.778;9.126;2023-03-30T09:25:16;4.35;;;1.55;;
21943;SDS011;11136;48.778;9.126;2023-03-30T09:30:44;3.35;;;1.30;;
21943;SDS011;11136;48.778;9.126;2023-03-30T09:36:43;4.07;;;1.63;;
21943;SDS011;11136;48.778;9.126;2023-03-30T09:39:28;2.80;;;1.30;;
21943;SDS011;11136;48.778;9.126;2023-03-30T09:45:08;5.40;;;1.55;;
21943;SDS011;11136;48.778;9.126;2023-03-30T09:47:41;5.88;;;2.15;;
21943;SDS011;11136;48.778;9.126;2023-03-30T09:50:11;4.20;;;1.98;;
21943;SDS011;11136;48.778;9.126;2023-03-30T09:52:41;5.35;;;2.03;;
21943;SDS011;11136;48.778;9.126;2023-03-30T09:55:27;3.58;;;1.60;;
21943;SDS011;11136;48.778;9.126;2023-03-30T09:58:13;5.05;;;2.03;;
21943;SDS011;11136;48.778;9.126;2023-03-30T10:00:43;2.95;;;1.45;;
21943;SDS011;11136;48.778;9.126;2023-03-30T10:03:28;2.50;;;1.77;;
21943;SDS011;11136;48.778;9.126;2023-03-30T10:06:27;6.78;;;1.80;;
21943;SDS011;11136;48.778;9.126;2023-03-30T10:11:18;4.57;;;2.10;;
21943;SDS011;11136;48.778;9.126;2023-03-30T10:13:45;3.83;;;2.20;;
21943;SDS011;11136;48.778;9.126;2023-03-30T10:16:32;6.97;;;2.35;;
21943;SDS011;11136;48.778;9.126;2023-03-30T10:18:59;5.00;;;2.28;;
21943;SDS011;11136;48.778;9.126;2023-03-30T10:21:38;4.00;;;1.98;;
21943;SDS011;11136;48.778;9.126;2023-03-30T10:24:06;3.20;;;1.70;;
21943;SDS011;11136;48.778;9.126;2023-03-30T10:26:46;3.92;;;1.90;;
21943;SDS011;11136;48.778;9.126;2023-03-30T10:29:16;5.57;;;2.10;;
21943;SDS011;11136;48.778;9.126;2023-03-30T10:31:44;3.63;;;1.92;;
21943;SDS011;11136;48.778;9.126;2023-03-30T10:34:45;8.52;;;1.92;;
21943;SDS011;11136;48.778;9.126;2023-03-30T10:37:08;4.63;;;2.00;;
21943;SDS011;11136;48.778;9.126;2023-03-30T10:39:40;3.00;;;1.80;;
21943;SDS011;11136;48.778;9.126;2023-03-30T10:42:10;7.57;;;1.83;;
21943;SDS011;11136;48.778;9.126;2023-03-30T10:44:48;4.63;;;2.25;;
21943;SDS011;11136;48.778;9.126;2023-03-30T10:50:03;4.10;;;2.53;;
21943;SDS011;11136;48.778;9.126;2023-03-30T10:52:42;3.60;;;1.77;;
21943;SDS011;11136;48.778;9.126;2023-03-30T10:55:22;4.47;;;2.15;;
21943;SDS011;11136;48.778;9.126;2023-03-30T10:58:09;6.38;;;2.17;;
21943;SDS011;11136;48.778;9.126;2023-03-30T11:03:37;3.10;;;2.10;;
21943;SDS011;11136;48.778;9.126;2023-03-30T11:08:41;8.88;;;2.00;;
21943;SDS011;11136;48.778;9.126;2023-03-30T11:11:15;10.85;;;2.30;;
21943;SDS011;11136;48.778;9.126;2023-03-30T11:13:50;2.60;;;1.83;;
21943;SDS011;11136;48.778;9.126;2023-03-30T11:16:20;5.00;;;2.00;;
21943;SDS011;11136;48.778;9.126;2023-03-30T11:18:55;3.15;;;2.30;;
21943;SDS011;11136;48.778;9.126;2023-03-30T11:24:22;8.30;;;3.08;;
21943;SDS011;11136;48.778;9.126;2023-03-30T11:32:36;5.50;;;2.00;;
21943;SDS011;11136;48.778;9.126;2023-03-30T11:40:36;6.55;;;2.95;;
21943;SDS011;11136;48.778;9.126;2023-03-30T11:43:14;8.45;;;2.58;;
21943;SDS011;11136;48.778;9.126;2023-03-30T11:45:47;6.95;;;2.22;;
21943;SDS011;11136;48.778;9.126;2023-03-30T11:48:33;3.65;;;2.28;;
21943;SDS011;11136;48.778;9.126;2023-03-30T12:02:45;3.90;;;1.92;;
21943;SDS011;11136;48.778;9.126;2023-03-30T12:05:52;7.00;;;2.22;;
21943;SDS011;11136;48.778;9.126;2023-03-30T12:19:56;8.10;;;2.50;;
21943;SDS011;11136;48.778;9.126;2023-03-30T12:22:49;9.57;;;3.03;;
21943;SDS011;11136;48.778;9.126;2023-03-30T12:25:32;8.70;;;2.72;;
21943;SDS011;11136;48.778;9.126;2023-03-30T12:28:09;7.57;;;2.63;;
21943;SDS011;11136;48.778;9.126;2023-03-30T12:30:52;5.97;;;2.17;;
21943;SDS011;11136;48.778;9.126;2023-03-30T12:33:42;8.48;;;3.10;;
21943;SDS011;11136;48.778;9.126;2023-03-30T12:38:58;8.32;;;2.15;;
21943;SDS011;11136;48.778;9.126;2023-03-30T12:41:37;6.93;;;2.67;;
21943;SDS011;11136;48.778;9.126;2023-03-30T12:52:13;7.32;;;2.85;;
21943;SDS011;11136;48.778;9.126;2023-03-30T12:58:39;5.28;;;2.60;;
21943;SDS011;11136;48.778;9.126;2023-03-30T13:00:46;7.32;;;2.97;;
21943;SDS011;11136;48.778;9.126;2023-03-30T13:03:36;4.90;;;2.33;;
21943;SDS011;11136;48.778;9.126;2023-03-30T13:06:03;6.50;;;2.15;;
21943;SDS011;11136;48.778;9.126;2023-03-30T13:08:36;4.88;;;2.03;;
21943;SDS011;11136;48.778;9.126;2023-03-30T13:11:10;3.58;;;1.58;;
21943;SDS011;11136;48.778;9.126;2023-03-30T13:20:02;3.88;;;2.13;;
21943;SDS011;11136;48.778;9.126;2023-03-30T13:27:09;8.13;;;1.83;;
21943;SDS011;11136;48.778;9.126;2023-03-30T13:29:39;4.30;;;2.00;;
21943;SDS011;11136;48.778;9.126;2023-03-30T13:32:11;4.80;;;1.60;;
21943;SDS011;11136;48.778;9.126;2023-03-30T13:35:14;7.55;;;2.25;;
21943;SDS011;11136;48.778;9.126;2023-03-30T13:43:57;4.32;;;1.90;;
21943;SDS011;11136;48.778;9.126;2023-03-30T13:52:15;6.72;;;2.20;;
21943;SDS011;11136;48.778;9.126;2023-03-30T13:54:43;2.40;;;1.70;;
21943;SDS011;11136;48.778;9.126;2023-03-30T13:57:11;4.28;;;2.30;;
21943;SDS011;11136;48.778;9.126;2023-03-30T13:59:44;3.65;;;2.40;;
21943;SDS011;11136;48.778;9.126;2023-03-30T14:02:22;4.30;;;2.05;;
21943;SDS011;11136;48.778;9.126;2023-03-30T14:05:09;4.18;;;2.28;;
21943;SDS011;11136;48.778;9.126;2023-03-30T14:07:41;5.60;;;1.60;;
21943;SDS011;11136;48.778;9.126;2023-03-30T14:10:11;5.13;;;2.00;;
21943;SDS011;11136;48.778;9.126;2023-03-30T14:12:39;6.22;;;1.90;;
21943;SDS011;11136;48.778;9.126;2023-03-30T14:15:21;4.93;;;1.70;;
21943;SDS011;11136;48.778;9.126;2023-03-30T14:17:53;6.22;;;1.55;;
21943;SDS011;11136;48.778;9.126;2023-03-30T14:22:47;7.80;;;1.95;;
21943;SDS011;11136;48.778;9.126;2023-03-30T14:28:15;5.65;;;1.88;;
21943;SDS011;11136;48.778;9.126;2023-03-30T14:30:49;5.28;;;1.90;;
21943;SDS011;11136;48.778;9.126;2023-03-30T14:33:16;4.70;;;1.25;;
21943;SDS011;11136;48.778;9.126;2023-03-30T14:35:43;3.25;;;1.25;;
21943;SDS011;11136;48.778;9.126;2023-03-30T14:38:22;7.00;;;1.70;;
21943;SDS011;11136;48.778;9.126;2023-03-30T14:40:50;3.35;;;1.58;;
21943;SDS011;11136;48.778;9.126;2023-03-30T14:43:18;6.00;;;2.05;;
21943;SDS011;11136;48.778;9.126;2023-03-30T14:45:46;4.05;;;1.52;;
21943;SDS011;11136;48.778;9.126;2023-03-30T14:48:19;7.85;;;1.88;;
21943;SDS011;11136;48.778;9.126;2023-03-30T14:50:48;5.57;;;1.73;;
21943;SDS011;11136;48.778;9.126;2023-03-30T14:53:16;5.68;;;1.70;;
21943;SDS011;11136;48.778;9.126;2023-03-30T14:55:46;6.90;;;1.80;;
21943;SDS011;11136;48.778;9.126;2023-03-30T14:58:13;4.90;;;1.42;;
21943;SDS011;11136;48.778;9.126;2023-03-30T15:00:40;6.25;;;1.55;;
21943;SDS011;11136;48.778;9.126;2023-03-30T15:03:07;3.15;;;1.75;;
21943;SDS011;11136;48.778;9.126;2023-03-30T15:05:35;5.45;;;1.85;;
21943;SDS011;11136;48.778;9.126;2023-03-30T15:08:04;2.55;;;1.33;;
21943;SDS011;11136;48.778;9.126;2023-03-30T15:10:42;3.35;;;1.42;;
21943;SDS011;11136;48.778;9.126;2023-03-30T15:13:35;3.85;;;1.50;;
21943;SDS011;11136;48.778;9.126;2023-03-30T15:16:02;5.82;;;2.20;;
21943;SDS011;11136;48.778;9.126;2023-03-30T15:18:29;4.28;;;1.40;;
21943;SDS011;11136;48.778;9.126;2023-03-30T15:20:56;4.13;;;2.03;;
21943;SDS011;11136;48.778;9.126;2023-03-30T15:23:23;7.18;;;2.25;;
21943;SDS011;11136;48.778;9.126;2023-03-30T15:25:56;5.68;;;2.10;;
21943;SDS011;11136;48.778;9.126;2023-03-30T15:28:24;3.88;;;1.70;;
21943;SDS011;11136;48.778;9.126;2023-03-30T15:30:54;3.50;;;1.50;;
21943;SDS011;11136;48.778;9.126;2023-03-30T15:33:40;3.40;;;1.60;;
21943;SDS011;11136;48.778;9.126;2023-03-30T15:36:12;4.15;;;1.80;;
21943;SDS011;11136;48.778;9.126;2023-03-30T15:38:46;2.65;;;1.40;;
21943;SDS011;11136;48.778;9.126;2023-03-30T15:44:14;4.93;;;1.75;;
21943;SDS011;11136;48.778;9.126;2023-03-30T15:46:42;6.15;;;1.88;;
21943;SDS011;11136;48.778;9.126;2023-03-30T15:49:13;3.53;;;1.30;;
21943;SDS011;11136;48.778;9.126;2023-03-30T15:51:51;4.35;;;1.92;;
21943;SDS011;11136;48.778;9.126;2023-03-30T15:54:38;3.67;;;1.58;;
21943;SDS011;11136;48.778;9.126;2023-03-30T16:00:04;5.53;;;1.30;;
21943;SDS011;11136;48.778;9.126;2023-03-30T16:05:03;4.65;;;1.15;;
21943;SDS011;11136;48.778;9.126;2023-03-30T16:07:31;2.35;;;1.15;;
21943;SDS011;11136;48.778;9.126;2023-03-30T16:09:57;2.83;;;1.00;;
21943;SDS011;11136;48.778;9.126;2023-03-30T16:12:24;2.20;;;0.60;;
21943;SDS011;11136;48.778;9.126;2023-03-30T16:14:51;2.10;;;0.60;;
21943;SDS011;11136;48.778;9.126;2023-03-30T16:17:17;4.30;;;0.88;;
21943;SDS011;11136;48.778;9.126;2023-03-30T16:19:44;2.88;;;0.93;;
21943;SDS011;11136;48.778;9.126;2023-03-30T16:22:10;1.35;;;0.90;;
21943;SDS011;11136;48.778;9.126;2023-03-30T16:24:38;2.55;;;0.90;;
21943;SDS011;11136;48.778;9.126;2023-03-30T16:27:05;2.50;;;0.80;;
21943;SDS011;11136;48.778;9.126;2023-03-30T16:29:31;3.25;;;0.90;;
21943;SDS011;11136;48.778;9.126;2023-03-30T16:31:58;3.92;;;1.00;;
21943;SDS011;11136;48.778;9.126;2023-03-30T16:34:24;4.45;;;1.23;;
21943;SDS011;11136;48.778;9.126;2023-03-30T16:36:50;3.00;;;0.85;;
21943;SDS011;11136;48.778;9.126;2023-03-30T16:39:17;3.10;;;0.80;;
21943;SDS011;11136;48.778;9.126;2023-03-30T16:44:15;2.58;;;0.90;;
21943;SDS011;11136;48.778;9.126;2023-03-30T16:46:41;3.50;;;0.85;;
21943;SDS011;11136;48.778;9.126;2023-03-30T16:49:14;3.05;;;0.82;;
21943;SDS011;11136;48.778;9.126;2023-03-30T16:51:42;4.35;;;1.63;;
21943;SDS011;11136;48.778;9.126;2023-03-30T16:54:08;1.70;;;0.85;;
21943;SDS011;11136;48.778;9.126;2023-03-30T16:56:34;1.35;;;0.73;;
21943;SDS011;11136;48.778;9.126;2023-03-30T16:59:00;3.92;;;1.10;;
21943;SDS011;11136;48.778;9.126;2023-03-30T17:01:26;3.65;;;1.38;;
21943;SDS011;11136;48.778;9.126;2023-03-30T17:03:52;2.63;;;0.90;;
21943;SDS011;11136;48.778;9.126;2023-03-30T17:06:18;4.85;;;1.02;;
21943;SDS011;11136;48.778;9.126;2023-03-30T17:08:46;3.83;;;1.15;;
21943;SDS011;11136;48.778;9.126;2023-03-30T17:11:13;3.15;;;1.08;;
21943;SDS011;11136;48.778;9.126;2023-03-30T17:13:39;2.33;;;0.90;;
21943;SDS011;11136;48.778;9.126;2023-03-30T17:16:05;3.53;;;1.08;;
21943;SDS011;11136;48.778;9.126;2023-03-30T17:18:31;3.08;;;1.45;;
21943;SDS011;11136;48.778;9.126;2023-03-30T17:20:58;2.95;;;0.95;;
21943;SDS011;11136;48.778;9.126;2023-03-30T17:23:26;4.72;;;1.23;;
21943;SDS011;11136;48.778;9.126;2023-03-30T17:25:54;4.30;;;1.15;;
21943;SDS011;11136;48.778;9.126;2023-03-30T17:30:48;4.22;;;0.90;;
21943;SDS011;11136;48.778;9.126;2023-03-30T17:33:15;8.45;;;1.58;;
21943;SDS011;11136;48.778;9.126;2023-03-30T17:35:42;2.47;;;0.90;;
21943;SDS011;11136;48.778;9.126;2023-03-30T17:38:11;1.95;;;1.00;;
21943;SDS011;11136;48.778;9.126;2023-03-30T17:40:36;3.97;;;0.88;;
21943;SDS011;11136;48.778;9.126;2023-03-30T17:43:06;4.22;;;1.30;;